sensor_id;sensor_type;location;lat;lon;timestamp;P1;durP1;ratioP1;P2;durP2;ratioP2
41263;SDS011;26998;48.714;9.414;2023-05-07T00:00:05;6.50;;;3.88;;
41263;SDS011;26998;48.714;9.414;2023-05-07T00:02:32;6.20;;;3.63;;
41263;SDS011;26998;48.714;9.414;2023-05-07T00:04:59;5.47;;;3.40;;
41263;SDS011;26998;48.714;9.414;2023-05-07T00:07:26;6.10;;;2.97;;
41263;SDS011;26998;48.714;9.414;2023-05-07T00:09:55;6.68;;;3.60;;
41263;SDS011;26998;48.714;9.414;2023-05-07T00:12:23;4.82;;;3.42;;
41263;SDS011;26998;48.714;9.414;2023-05-07T00:14:50;6.32;;;3.70;;
41263;SDS011;26998;48.714;9.414;2023-05-07T00:17:16;4.22;;;3.20;;
41263;SDS011;26998;48.714;9.414;2023-05-07T00:19:43;4.57;;;3.75;;
41263;SDS011;26998;48.714;9.414;2023-05-07T00:22:11;5.28;;;3.45;;
41263;SDS011;26998;48.714;9.414;2023-05-07T00:24:38;5.35;;;4.00;;
41263;SDS011;26998;48.714;9.414;2023-05-07T00:27:04;4.07;;;3.17;;
41263;SDS011;26998;48.714;9.414;2023-05-07T00:29:31;4.80;;;3.63;;
41263;SDS011;26998;48.714;9.414;2023-05-07T00:31:58;6.97;;;3.33;;
41263;SDS011;26998;48.714;9.414;2023-05-07T00:34:24;4.78;;;3.20;;
41263;SDS011;26998;48.714;9.414;2023-05-07T00:36:51;5.18;;;3.10;;
41263;SDS011;26998;48.714;9.414;2023-05-07T00:39:18;5.72;;;3.35;;
41263;SDS011;26998;48.714;9.414;2023-05-07T00:41:46;6.70;;;3.60;;
41263;SDS011;26998;48.714;9.414;2023-05-07T00:44:15;4.78;;;3.60;;
41263;SDS011;26998;48.714;9.414;2023-05-07T00:46:41;4.05;;;2.78;;
41263;SDS011;26998;48.714;9.414;2023-05-07T00:49:08;3.55;;;3.25;;
41263;SDS011;26998;48.714;9.414;2023-05-07T00:51:35;4.95;;;3.75;;
41263;SDS011;26998;48.714;9.414;2023-05-07T00:54:02;4.70;;;3.20;;
41263;SDS011;26998;48.714;9.414;2023-05-07T00:56:29;6.63;;;3.35;;
41263;SDS011;26998;48.714;9.414;2023-05-07T00:58:58;6.03;;;3.30;;
41263;SDS011;26998;48.714;9.414;2023-05-07T01:01:24;4.07;;;3.47;;
41263;SDS011;26998;48.714;9.414;2023-05-07T01:03:52;6.65;;;3.10;;
41263;SDS011;26998;48.714;9.414;2023-05-07T01:06:20;8.23;;;3.25;;
41263;SDS011;26998;48.714;9.414;2023-05-07T01:08:49;4.00;;;3.28;;
41263;SDS011;26998;48.714;9.414;2023-05-07T01:11:16;6.32;;;3.30;;
41263;SDS011;26998;48.714;9.414;2023-05-07T01:13:46;4.32;;;2.95;;
41263;SDS011;26998;48.714;9.414;2023-05-07T01:16:13;3.90;;;3.17;;
41263;SDS011;26998;48.714;9.414;2023-05-07T01:18:40;6.95;;;3.88;;
41263;SDS011;26998;48.714;9.414;2023-05-07T01:21:07;3.30;;;2.47;;
41263;SDS011;26998;48.714;9.414;2023-05-07T01:23:37;4.30;;;2.67;;
41263;SDS011;26998;48.714;9.414;2023-05-07T01:26:05;5.35;;;3.38;;
41263;SDS011;26998;48.714;9.414;2023-05-07T01:28:32;8.07;;;3.70;;
41263;SDS011;26998;48.714;9.414;2023-05-07T01:31:00;4.53;;;3.40;;
41263;SDS011;26998;48.714;9.414;2023-05-07T01:33:29;4.97;;;3.40;;
41263;SDS011;26998;48.714;9.414;2023-05-07T01:35:59;5.97;;;3.17;;
41263;SDS011;26998;48.714;9.414;2023-05-07T01:38:27;8.20;;;3.88;;
41263;SDS011;26998;48.714;9.414;2023-05-07T01:40:54;5.88;;;3.72;;
41263;SDS011;26998;48.714;9.414;2023-05-07T01:43:22;4.32;;;3.60;;
41263;SDS011;26998;48.714;9.414;2023-05-07T01:45:49;7.07;;;3.42;;
41263;SDS011;26998;48.714;9.414;2023-05-07T01:48:16;7.20;;;3.97;;
41263;SDS011;26998;48.714;9.414;2023-05-07T01:50:44;6.20;;;3.70;;
41263;SDS011;26998;48.714;9.414;2023-05-07T01:53:12;6.97;;;3.17;;
41263;SDS011;26998;48.714;9.414;2023-05-07T01:55:38;4.80;;;3.33;;
41263;SDS011;26998;48.714;9.414;2023-05-07T01:58:05;6.75;;;3.42;;
41263;SDS011;26998;48.714;9.414;2023-05-07T02:00:33;4.20;;;3.28;;
41263;SDS011;26998;48.714;9.414;2023-05-07T02:03:00;8.52;;;3.58;;
41263;SDS011;26998;48.714;9.414;2023-05-07T02:05:27;9.00;;;4.47;;
41263;SDS011;26998;48.714;9.414;2023-05-07T02:07:53;4.70;;;3.40;;
41263;SDS011;26998;48.714;9.414;2023-05-07T02:10:21;4.18;;;3.45;;
41263;SDS011;26998;48.714;9.414;2023-05-07T02:12:50;5.47;;;3.40;;
41263;SDS011;26998;48.714;9.414;2023-05-07T02:15:18;5.95;;;3.15;;
41263;SDS011;26998;48.714;9.414;2023-05-07T02:17:58;3.55;;;3.25;;
41263;SDS011;26998;48.714;9.414;2023-05-07T02:20:29;3.78;;;3.38;;
41263;SDS011;26998;48.714;9.414;2023-05-07T02:22:56;4.18;;;3.05;;
41263;SDS011;26998;48.714;9.414;2023-05-07T02:25:22;5.47;;;3.85;;
41263;SDS011;26998;48.714;9.414;2023-05-07T02:27:49;6.68;;;3.50;;
41263;SDS011;26998;48.714;9.414;2023-05-07T02:30:16;4.15;;;3.08;;
41263;SDS011;26998;48.714;9.414;2023-05-07T02:32:43;10.40;;;3.45;;
41263;SDS011;26998;48.714;9.414;2023-05-07T02:35:09;4.38;;;3.20;;
41263;SDS011;26998;48.714;9.414;2023-05-07T02:37:37;4.47;;;3.30;;
41263;SDS011;26998;48.714;9.414;2023-05-07T02:40:04;4.32;;;3.05;;
41263;SDS011;26998;48.714;9.414;2023-05-07T02:42:32;4.60;;;3.22;;
41263;SDS011;26998;48.714;9.414;2023-05-07T02:44:59;7.43;;;3.30;;
41263;SDS011;26998;48.714;9.414;2023-05-07T02:47:25;5.00;;;3.60;;
41263;SDS011;26998;48.714;9.414;2023-05-07T02:49:53;5.57;;;3.20;;
41263;SDS011;26998;48.714;9.414;2023-05-07T02:52:21;5.53;;;3.53;;
41263;SDS011;26998;48.714;9.414;2023-05-07T02:54:48;4.10;;;3.28;;
41263;SDS011;26998;48.714;9.414;2023-05-07T02:57:15;5.38;;;2.80;;
41263;SDS011;26998;48.714;9.414;2023-05-07T02:59:42;5.10;;;3.15;;
41263;SDS011;26998;48.714;9.414;2023-05-07T03:02:09;4.80;;;3.00;;
41263;SDS011;26998;48.714;9.414;2023-05-07T03:04:37;3.35;;;3.05;;
41263;SDS011;26998;48.714;9.414;2023-05-07T03:07:05;7.30;;;3.15;;
41263;SDS011;26998;48.714;9.414;2023-05-07T03:09:33;4.40;;;3.00;;
41263;SDS011;26998;48.714;9.414;2023-05-07T03:11:59;5.22;;;3.50;;
41263;SDS011;26998;48.714;9.414;2023-05-07T03:14:27;4.40;;;3.55;;
41263;SDS011;26998;48.714;9.414;2023-05-07T03:16:53;6.97;;;3.50;;
41263;SDS011;26998;48.714;9.414;2023-05-07T03:19:20;5.28;;;3.20;;
41263;SDS011;26998;48.714;9.414;2023-05-07T03:21:47;3.35;;;2.92;;
41263;SDS011;26998;48.714;9.414;2023-05-07T03:24:13;4.15;;;3.17;;
41263;SDS011;26998;48.714;9.414;2023-05-07T03:26:40;4.22;;;3.05;;
41263;SDS011;26998;48.714;9.414;2023-05-07T03:29:06;6.45;;;3.60;;
41263;SDS011;26998;48.714;9.414;2023-05-07T03:31:33;4.70;;;3.20;;
41263;SDS011;26998;48.714;9.414;2023-05-07T03:34:00;3.65;;;3.08;;
41263;SDS011;26998;48.714;9.414;2023-05-07T03:36:26;7.50;;;3.40;;
41263;SDS011;26998;48.714;9.414;2023-05-07T03:38:53;3.78;;;3.15;;
41263;SDS011;26998;48.714;9.414;2023-05-07T03:41:19;4.32;;;3.47;;
41263;SDS011;26998;48.714;9.414;2023-05-07T03:43:46;5.97;;;3.83;;
41263;SDS011;26998;48.714;9.414;2023-05-07T03:46:15;4.10;;;2.97;;
41263;SDS011;26998;48.714;9.414;2023-05-07T03:48:42;4.45;;;3.53;;
41263;SDS011;26998;48.714;9.414;2023-05-07T03:51:09;7.07;;;3.15;;
41263;SDS011;26998;48.714;9.414;2023-05-07T03:53:38;8.10;;;4.03;;
41263;SDS011;26998;48.714;9.414;2023-05-07T03:56:05;3.95;;;3.50;;
41263;SDS011;26998;48.714;9.414;2023-05-07T03:58:32;5.53;;;3.28;;
41263;SDS011;26998;48.714;9.414;2023-05-07T04:00:58;4.55;;;3.33;;
41263;SDS011;26998;48.714;9.414;2023-05-07T04:03:25;3.28;;;2.97;;
41263;SDS011;26998;48.714;9.414;2023-05-07T04:05:52;6.13;;;3.50;;
41263;SDS011;26998;48.714;9.414;2023-05-07T04:08:19;3.90;;;3.40;;
41263;SDS011;26998;48.714;9.414;2023-05-07T04:10:47;6.30;;;3.30;;
41263;SDS011;26998;48.714;9.414;2023-05-07T04:13:20;6.10;;;3.47;;
41263;SDS011;26998;48.714;9.414;2023-05-07T04:15:47;3.40;;;3.10;;
41263;SDS011;26998;48.714;9.414;2023-05-07T04:18:14;4.68;;;2.88;;
41263;SDS011;26998;48.714;9.414;2023-05-07T04:20:42;5.38;;;3.25;;
41263;SDS011;26998;48.714;9.414;2023-05-07T04:23:08;4.88;;;3.60;;
41263;SDS011;26998;48.714;9.414;2023-05-07T04:25:35;4.95;;;3.20;;
41263;SDS011;26998;48.714;9.414;2023-05-07T04:28:01;4.78;;;3.45;;
41263;SDS011;26998;48.714;9.414;2023-05-07T04:30:28;4.82;;;3.42;;
41263;SDS011;26998;48.714;9.414;2023-05-07T04:32:54;6.28;;;3.92;;
41263;SDS011;26998;48.714;9.414;2023-05-07T04:35:21;6.35;;;3.17;;
41263;SDS011;26998;48.714;9.414;2023-05-07T04:37:48;3.95;;;3.60;;
41263;SDS011;26998;48.714;9.414;2023-05-07T04:40:14;4.15;;;3.70;;
41263;SDS011;26998;48.714;9.414;2023-05-07T04:42:41;5.80;;;3.53;;
41263;SDS011;26998;48.714;9.414;2023-05-07T04:45:07;8.93;;;4.00;;
41263;SDS011;26998;48.714;9.414;2023-05-07T04:47:36;5.82;;;3.65;;
41263;SDS011;26998;48.714;9.414;2023-05-07T04:50:07;7.38;;;3.70;;
41263;SDS011;26998;48.714;9.414;2023-05-07T04:52:34;8.70;;;3.63;;
41263;SDS011;26998;48.714;9.414;2023-05-07T04:55:02;5.90;;;3.60;;
41263;SDS011;26998;48.714;9.414;2023-05-07T04:57:30;4.05;;;3.63;;
41263;SDS011;26998;48.714;9.414;2023-05-07T04:59:58;6.15;;;3.20;;
41263;SDS011;26998;48.714;9.414;2023-05-07T05:02:24;4.13;;;3.53;;
41263;SDS011;26998;48.714;9.414;2023-05-07T05:04:51;5.07;;;3.08;;
41263;SDS011;26998;48.714;9.414;2023-05-07T05:07:18;7.78;;;3.60;;
41263;SDS011;26998;48.714;9.414;2023-05-07T05:09:45;5.85;;;4.03;;
41263;SDS011;26998;48.714;9.414;2023-05-07T05:12:11;4.78;;;2.83;;
41263;SDS011;26998;48.714;9.414;2023-05-07T05:14:38;4.80;;;3.10;;
41263;SDS011;26998;48.714;9.414;2023-05-07T05:17:04;4.40;;;3.13;;
41263;SDS011;26998;48.714;9.414;2023-05-07T05:19:31;3.92;;;3.03;;
41263;SDS011;26998;48.714;9.414;2023-05-07T05:21:58;5.38;;;2.88;;
41263;SDS011;26998;48.714;9.414;2023-05-07T05:24:24;4.93;;;3.10;;
41263;SDS011;26998;48.714;9.414;2023-05-07T05:26:52;4.00;;;3.58;;
41263;SDS011;26998;48.714;9.414;2023-05-07T05:29:20;3.05;;;2.75;;
41263;SDS011;26998;48.714;9.414;2023-05-07T05:31:47;6.68;;;3.72;;
41263;SDS011;26998;48.714;9.414;2023-05-07T05:34:14;3.90;;;2.97;;
41263;SDS011;26998;48.714;9.414;2023-05-07T05:36:41;2.53;;;2.13;;
41263;SDS011;26998;48.714;9.414;2023-05-07T05:39:08;3.83;;;2.50;;
41263;SDS011;26998;48.714;9.414;2023-05-07T05:41:35;6.13;;;2.30;;
41263;SDS011;26998;48.714;9.414;2023-05-07T05:44:01;3.80;;;2.45;;
41263;SDS011;26998;48.714;9.414;2023-05-07T05:46:28;3.00;;;2.63;;
41263;SDS011;26998;48.714;9.414;2023-05-07T05:48:55;4.07;;;2.53;;
41263;SDS011;26998;48.714;9.414;2023-05-07T05:51:23;4.20;;;2.60;;
41263;SDS011;26998;48.714;9.414;2023-05-07T05:53:49;3.90;;;3.17;;
41263;SDS011;26998;48.714;9.414;2023-05-07T05:56:16;7.07;;;3.83;;
41263;SDS011;26998;48.714;9.414;2023-05-07T05:58:42;6.35;;;3.63;;
41263;SDS011;26998;48.714;9.414;2023-05-07T06:01:09;4.57;;;3.33;;
41263;SDS011;26998;48.714;9.414;2023-05-07T06:03:36;4.38;;;2.78;;
41263;SDS011;26998;48.714;9.414;2023-05-07T06:06:03;4.65;;;2.45;;
41263;SDS011;26998;48.714;9.414;2023-05-07T06:08:29;6.05;;;2.45;;
41263;SDS011;26998;48.714;9.414;2023-05-07T06:10:57;3.90;;;2.60;;
41263;SDS011;26998;48.714;9.414;2023-05-07T06:13:24;4.28;;;2.72;;
41263;SDS011;26998;48.714;9.414;2023-05-07T06:15:52;4.38;;;2.97;;
41263;SDS011;26998;48.714;9.414;2023-05-07T06:18:18;3.75;;;2.72;;
41263;SDS011;26998;48.714;9.414;2023-05-07T06:20:45;3.65;;;2.30;;
41263;SDS011;26998;48.714;9.414;2023-05-07T06:23:13;2.97;;;2.40;;
41263;SDS011;26998;48.714;9.414;2023-05-07T06:25:47;6.15;;;2.55;;
41263;SDS011;26998;48.714;9.414;2023-05-07T06:28:15;10.27;;;4.03;;
41263;SDS011;26998;48.714;9.414;2023-05-07T06:30:41;3.60;;;2.67;;
41263;SDS011;26998;48.714;9.414;2023-05-07T06:33:08;7.95;;;3.85;;
41263;SDS011;26998;48.714;9.414;2023-05-07T06:35:35;5.75;;;2.90;;
41263;SDS011;26998;48.714;9.414;2023-05-07T06:38:03;4.07;;;2.85;;
41263;SDS011;26998;48.714;9.414;2023-05-07T06:40:30;2.95;;;2.55;;
41263;SDS011;26998;48.714;9.414;2023-05-07T06:42:57;4.22;;;2.85;;
41263;SDS011;26998;48.714;9.414;2023-05-07T06:45:29;4.75;;;2.63;;
41263;SDS011;26998;48.714;9.414;2023-05-07T06:47:56;5.85;;;2.70;;
41263;SDS011;26998;48.714;9.414;2023-05-07T06:50:22;4.78;;;2.78;;
41263;SDS011;26998;48.714;9.414;2023-05-07T06:52:49;6.38;;;2.83;;
41263;SDS011;26998;48.714;9.414;2023-05-07T06:55:16;3.20;;;2.60;;
41263;SDS011;26998;48.714;9.414;2023-05-07T06:57:42;3.20;;;2.63;;
41263;SDS011;26998;48.714;9.414;2023-05-07T07:00:09;3.40;;;2.50;;
41263;SDS011;26998;48.714;9.414;2023-05-07T07:02:37;4.32;;;2.83;;
41263;SDS011;26998;48.714;9.414;2023-05-07T07:05:04;4.57;;;3.15;;
41263;SDS011;26998;48.714;9.414;2023-05-07T07:07:31;4.00;;;3.00;;
41263;SDS011;26998;48.714;9.414;2023-05-07T07:09:58;3.78;;;3.20;;
41263;SDS011;26998;48.714;9.414;2023-05-07T07:12:25;7.03;;;3.03;;
41263;SDS011;26998;48.714;9.414;2023-05-07T07:14:51;4.63;;;2.92;;
41263;SDS011;26998;48.714;9.414;2023-05-07T07:17:19;4.60;;;3.00;;
41263;SDS011;26998;48.714;9.414;2023-05-07T07:19:46;4.28;;;2.75;;
41263;SDS011;26998;48.714;9.414;2023-05-07T07:22:13;3.92;;;2.30;;
41263;SDS011;26998;48.714;9.414;2023-05-07T07:24:40;3.25;;;2.28;;
41263;SDS011;26998;48.714;9.414;2023-05-07T07:27:06;2.97;;;2.30;;
41263;SDS011;26998;48.714;9.414;2023-05-07T07:29:33;3.10;;;2.80;;
41263;SDS011;26998;48.714;9.414;2023-05-07T07:32:02;3.17;;;2.70;;
41263;SDS011;26998;48.714;9.414;2023-05-07T07:34:29;3.35;;;2.70;;
41263;SDS011;26998;48.714;9.414;2023-05-07T07:36:56;4.80;;;2.42;;
41263;SDS011;26998;48.714;9.414;2023-05-07T07:39:22;2.78;;;2.42;;
41263;SDS011;26998;48.714;9.414;2023-05-07T07:41:49;4.93;;;2.63;;
41263;SDS011;26998;48.714;9.414;2023-05-07T07:44:16;3.38;;;2.40;;
41263;SDS011;26998;48.714;9.414;2023-05-07T07:46:43;3.70;;;2.65;;
41263;SDS011;26998;48.714;9.414;2023-05-07T07:49:09;3.55;;;2.40;;
41263;SDS011;26998;48.714;9.414;2023-05-07T07:51:38;3.75;;;2.58;;
41263;SDS011;26998;48.714;9.414;2023-05-07T07:54:05;3.50;;;2.75;;
41263;SDS011;26998;48.714;9.414;2023-05-07T07:56:32;3.28;;;2.53;;
41263;SDS011;26998;48.714;9.414;2023-05-07T07:58:59;5.70;;;2.88;;
41263;SDS011;26998;48.714;9.414;2023-05-07T08:01:30;3.03;;;2.30;;
41263;SDS011;26998;48.714;9.414;2023-05-07T08:03:58;2.40;;;2.20;;
41263;SDS011;26998;48.714;9.414;2023-05-07T08:06:24;5.57;;;2.33;;
41263;SDS011;26998;48.714;9.414;2023-05-07T08:08:51;4.07;;;2.53;;
41263;SDS011;26998;48.714;9.414;2023-05-07T08:11:20;2.53;;;2.30;;
41263;SDS011;26998;48.714;9.414;2023-05-07T08:13:48;2.67;;;2.47;;
41263;SDS011;26998;48.714;9.414;2023-05-07T08:16:16;2.78;;;2.45;;
41263;SDS011;26998;48.714;9.414;2023-05-07T08:18:43;3.13;;;2.55;;
41263;SDS011;26998;48.714;9.414;2023-05-07T08:21:11;4.80;;;3.40;;
41263;SDS011;26998;48.714;9.414;2023-05-07T08:23:38;3.13;;;2.70;;
41263;SDS011;26998;48.714;9.414;2023-05-07T08:26:07;5.90;;;1.98;;
41263;SDS011;26998;48.714;9.414;2023-05-07T08:28:35;5.70;;;2.65;;
41263;SDS011;26998;48.714;9.414;2023-05-07T08:31:02;3.67;;;3.03;;
41263;SDS011;26998;48.714;9.414;2023-05-07T08:33:29;6.03;;;3.42;;
41263;SDS011;26998;48.714;9.414;2023-05-07T08:35:55;4.60;;;2.90;;
41263;SDS011;26998;48.714;9.414;2023-05-07T08:38:22;3.28;;;2.97;;
41263;SDS011;26998;48.714;9.414;2023-05-07T08:40:50;3.72;;;2.58;;
41263;SDS011;26998;48.714;9.414;2023-05-07T08:43:17;2.95;;;2.45;;
41263;SDS011;26998;48.714;9.414;2023-05-07T08:45:45;2.70;;;2.50;;
41263;SDS011;26998;48.714;9.414;2023-05-07T08:48:18;4.43;;;3.00;;
41263;SDS011;26998;48.714;9.414;2023-05-07T08:50:51;3.53;;;2.95;;
41263;SDS011;26998;48.714;9.414;2023-05-07T08:53:17;3.53;;;3.13;;
41263;SDS011;26998;48.714;9.414;2023-05-07T08:55:45;6.00;;;3.25;;
41263;SDS011;26998;48.714;9.414;2023-05-07T08:58:13;2.78;;;2.13;;
41263;SDS011;26998;48.714;9.414;2023-05-07T09:00:42;2.40;;;1.98;;
41263;SDS011;26998;48.714;9.414;2023-05-07T09:03:09;2.67;;;2.40;;
41263;SDS011;26998;48.714;9.414;2023-05-07T09:05:43;3.65;;;2.10;;
41263;SDS011;26998;48.714;9.414;2023-05-07T09:08:10;3.55;;;2.30;;
41263;SDS011;26998;48.714;9.414;2023-05-07T09:10:41;4.40;;;2.28;;
41263;SDS011;26998;48.714;9.414;2023-05-07T09:13:09;3.92;;;2.20;;
41263;SDS011;26998;48.714;9.414;2023-05-07T09:15:38;4.00;;;2.30;;
41263;SDS011;26998;48.714;9.414;2023-05-07T09:18:06;5.55;;;2.33;;
41263;SDS011;26998;48.714;9.414;2023-05-07T09:20:36;3.17;;;2.47;;
41263;SDS011;26998;48.714;9.414;2023-05-07T09:23:05;3.60;;;2.25;;
41263;SDS011;26998;48.714;9.414;2023-05-07T09:25:33;3.13;;;2.60;;
41263;SDS011;26998;48.714;9.414;2023-05-07T09:28:02;2.67;;;2.45;;
41263;SDS011;26998;48.714;9.414;2023-05-07T09:30:30;3.10;;;2.65;;
41263;SDS011;26998;48.714;9.414;2023-05-07T09:33:03;3.10;;;2.80;;
41263;SDS011;26998;48.714;9.414;2023-05-07T09:35:30;5.78;;;2.90;;
41263;SDS011;26998;48.714;9.414;2023-05-07T09:37:58;3.50;;;2.80;;
41263;SDS011;26998;48.714;9.414;2023-05-07T09:40:29;2.40;;;1.55;;
41263;SDS011;26998;48.714;9.414;2023-05-07T09:43:07;3.28;;;2.97;;
41263;SDS011;26998;48.714;9.414;2023-05-07T09:45:35;3.08;;;2.75;;
41263;SDS011;26998;48.714;9.414;2023-05-07T09:48:02;3.00;;;2.42;;
41263;SDS011;26998;48.714;9.414;2023-05-07T09:50:45;2.58;;;2.20;;
41263;SDS011;26998;48.714;9.414;2023-05-07T09:53:16;2.05;;;1.95;;
41263;SDS011;26998;48.714;9.414;2023-05-07T09:55:44;2.95;;;2.20;;
41263;SDS011;26998;48.714;9.414;2023-05-07T09:58:12;2.92;;;2.40;;
41263;SDS011;26998;48.714;9.414;2023-05-07T10:00:39;2.92;;;2.08;;
41263;SDS011;26998;48.714;9.414;2023-05-07T10:03:07;3.42;;;2.58;;
41263;SDS011;26998;48.714;9.414;2023-05-07T10:05:35;5.60;;;2.40;;
41263;SDS011;26998;48.714;9.414;2023-05-07T10:08:02;2.55;;;1.88;;
41263;SDS011;26998;48.714;9.414;2023-05-07T10:10:33;2.20;;;2.00;;
41263;SDS011;26998;48.714;9.414;2023-05-07T10:13:00;3.30;;;2.00;;
41263;SDS011;26998;48.714;9.414;2023-05-07T10:15:34;2.10;;;1.90;;
41263;SDS011;26998;48.714;9.414;2023-05-07T10:18:03;3.83;;;2.10;;
41263;SDS011;26998;48.714;9.414;2023-05-07T10:20:33;2.40;;;1.75;;
41263;SDS011;26998;48.714;9.414;2023-05-07T10:23:03;2.72;;;1.70;;
41263;SDS011;26998;48.714;9.414;2023-05-07T10:25:32;3.80;;;2.05;;
41263;SDS011;26998;48.714;9.414;2023-05-07T10:28:06;3.17;;;1.70;;
41263;SDS011;26998;48.714;9.414;2023-05-07T10:33:09;5.50;;;1.90;;
41263;SDS011;26998;48.714;9.414;2023-05-07T10:35:41;4.00;;;2.10;;
41263;SDS011;26998;48.714;9.414;2023-05-07T10:38:11;2.63;;;2.15;;
41263;SDS011;26998;48.714;9.414;2023-05-07T10:40:38;4.10;;;1.75;;
41263;SDS011;26998;48.714;9.414;2023-05-07T10:43:05;2.97;;;1.60;;
41263;SDS011;26998;48.714;9.414;2023-05-07T10:45:35;1.80;;;1.45;;
41263;SDS011;26998;48.714;9.414;2023-05-07T10:50:42;2.00;;;1.83;;
41263;SDS011;26998;48.714;9.414;2023-05-07T10:55:47;2.65;;;1.90;;
41263;SDS011;26998;48.714;9.414;2023-05-07T11:00:58;2.55;;;1.77;;
41263;SDS011;26998;48.714;9.414;2023-05-07T11:03:27;3.27;;;1.73;;
41263;SDS011;26998;48.714;9.414;2023-05-07T11:08:56;1.92;;;1.70;;
41263;SDS011;26998;48.714;9.414;2023-05-07T11:14:14;1.90;;;1.80;;
41263;SDS011;26998;48.714;9.414;2023-05-07T11:16:41;1.70;;;1.60;;
41263;SDS011;26998;48.714;9.414;2023-05-07T11:19:10;2.15;;;1.92;;
41263;SDS011;26998;48.714;9.414;2023-05-07T11:21:40;3.05;;;1.60;;
41263;SDS011;26998;48.714;9.414;2023-05-07T11:24:08;2.25;;;1.60;;
41263;SDS011;26998;48.714;9.414;2023-05-07T11:26:43;3.10;;;1.60;;
41263;SDS011;26998;48.714;9.414;2023-05-07T11:29:15;2.22;;;1.40;;
41263;SDS011;26998;48.714;9.414;2023-05-07T11:31:49;2.63;;;1.42;;
41263;SDS011;26998;48.714;9.414;2023-05-07T11:34:23;1.77;;;1.67;;
41263;SDS011;26998;48.714;9.414;2023-05-07T11:36:55;1.80;;;1.70;;
41263;SDS011;26998;48.714;9.414;2023-05-07T11:41:55;5.07;;;2.25;;
41263;SDS011;26998;48.714;9.414;2023-05-07T11:44:22;3.53;;;1.80;;
41263;SDS011;26998;48.714;9.414;2023-05-07T11:46:49;2.45;;;1.92;;
41263;SDS011;26998;48.714;9.414;2023-05-07T11:49:16;2.58;;;1.40;;
41263;SDS011;26998;48.714;9.414;2023-05-07T11:51:43;2.58;;;1.73;;
41263;SDS011;26998;48.714;9.414;2023-05-07T11:54:11;2.30;;;1.80;;
41263;SDS011;26998;48.714;9.414;2023-05-07T11:56:42;2.20;;;1.83;;
41263;SDS011;26998;48.714;9.414;2023-05-07T11:59:10;1.98;;;1.55;;
41263;SDS011;26998;48.714;9.414;2023-05-07T12:01:37;2.78;;;1.45;;
41263;SDS011;26998;48.714;9.414;2023-05-07T12:04:04;1.85;;;1.20;;
41263;SDS011;26998;48.714;9.414;2023-05-07T12:06:31;3.17;;;1.77;;
41263;SDS011;26998;48.714;9.414;2023-05-07T12:08:57;2.33;;;1.90;;
41263;SDS011;26998;48.714;9.414;2023-05-07T12:11:25;1.92;;;1.38;;
41263;SDS011;26998;48.714;9.414;2023-05-07T12:13:54;6.07;;;4.20;;
41263;SDS011;26998;48.714;9.414;2023-05-07T12:16:24;1.42;;;1.33;;
41263;SDS011;26998;48.714;9.414;2023-05-07T12:18:53;2.13;;;1.80;;
41263;SDS011;26998;48.714;9.414;2023-05-07T12:21:20;2.85;;;2.00;;
41263;SDS011;26998;48.714;9.414;2023-05-07T12:23:47;3.03;;;1.50;;
41263;SDS011;26998;48.714;9.414;2023-05-07T12:26:14;1.58;;;1.48;;
41263;SDS011;26998;48.714;9.414;2023-05-07T12:28:41;2.13;;;1.80;;
41263;SDS011;26998;48.714;9.414;2023-05-07T12:31:07;2.40;;;1.73;;
41263;SDS011;26998;48.714;9.414;2023-05-07T12:33:34;2.30;;;1.63;;
41263;SDS011;26998;48.714;9.414;2023-05-07T12:36:05;1.77;;;1.52;;
41263;SDS011;26998;48.714;9.414;2023-05-07T12:38:36;2.05;;;1.50;;
41263;SDS011;26998;48.714;9.414;2023-05-07T12:41:05;2.97;;;1.60;;
41263;SDS011;26998;48.714;9.414;2023-05-07T12:43:33;1.63;;;1.52;;
41263;SDS011;26998;48.714;9.414;2023-05-07T12:46:00;2.47;;;1.58;;
41263;SDS011;26998;48.714;9.414;2023-05-07T12:48:28;2.03;;;1.33;;
41263;SDS011;26998;48.714;9.414;2023-05-07T12:50:55;1.95;;;1.70;;
41263;SDS011;26998;48.714;9.414;2023-05-07T12:53:24;3.55;;;1.88;;
41263;SDS011;26998;48.714;9.414;2023-05-07T12:55:53;5.00;;;1.75;;
41263;SDS011;26998;48.714;9.414;2023-05-07T12:58:29;1.50;;;1.40;;
41263;SDS011;26998;48.714;9.414;2023-05-07T13:00:58;2.15;;;1.95;;
41263;SDS011;26998;48.714;9.414;2023-05-07T13:03:30;6.28;;;2.10;;
41263;SDS011;26998;48.714;9.414;2023-05-07T13:06:04;4.25;;;2.00;;
41263;SDS011;26998;48.714;9.414;2023-05-07T13:08:35;5.38;;;2.17;;
41263;SDS011;26998;48.714;9.414;2023-05-07T13:11:04;2.13;;;1.95;;
41263;SDS011;26998;48.714;9.414;2023-05-07T13:13:35;3.90;;;2.10;;
41263;SDS011;26998;48.714;9.414;2023-05-07T13:16:03;1.80;;;1.57;;
41263;SDS011;26998;48.714;9.414;2023-05-07T13:18:31;2.97;;;2.42;;
41263;SDS011;26998;48.714;9.414;2023-05-07T13:21:00;3.78;;;2.25;;
41263;SDS011;26998;48.714;9.414;2023-05-07T13:23:27;2.83;;;2.63;;
41263;SDS011;26998;48.714;9.414;2023-05-07T13:25:55;3.63;;;2.30;;
41263;SDS011;26998;48.714;9.414;2023-05-07T13:28:22;5.57;;;2.70;;
41263;SDS011;26998;48.714;9.414;2023-05-07T13:30:49;4.43;;;2.40;;
41263;SDS011;26998;48.714;9.414;2023-05-07T13:33:16;2.88;;;2.25;;
41263;SDS011;26998;48.714;9.414;2023-05-07T13:35:42;4.25;;;2.42;;
41263;SDS011;26998;48.714;9.414;2023-05-07T13:38:09;4.00;;;2.35;;
41263;SDS011;26998;48.714;9.414;2023-05-07T13:40:36;3.55;;;2.40;;
41263;SDS011;26998;48.714;9.414;2023-05-07T13:43:05;2.88;;;2.58;;
41263;SDS011;26998;48.714;9.414;2023-05-07T13:45:32;3.95;;;2.78;;
41263;SDS011;26998;48.714;9.414;2023-05-07T13:48:01;5.68;;;2.65;;
41263;SDS011;26998;48.714;9.414;2023-05-07T13:50:29;4.93;;;2.70;;
41263;SDS011;26998;48.714;9.414;2023-05-07T13:52:56;5.32;;;2.95;;
41263;SDS011;26998;48.714;9.414;2023-05-07T13:55:24;7.55;;;3.15;;
41263;SDS011;26998;48.714;9.414;2023-05-07T13:57:56;3.70;;;2.60;;
41263;SDS011;26998;48.714;9.414;2023-05-07T14:00:24;5.47;;;2.97;;
41263;SDS011;26998;48.714;9.414;2023-05-07T14:02:53;3.60;;;2.40;;
41263;SDS011;26998;48.714;9.414;2023-05-07T14:05:20;6.03;;;1.90;;
41263;SDS011;26998;48.714;9.414;2023-05-07T14:07:48;4.43;;;2.35;;
41263;SDS011;26998;48.714;9.414;2023-05-07T14:10:15;6.25;;;2.78;;
41263;SDS011;26998;48.714;9.414;2023-05-07T14:12:43;5.30;;;3.08;;
41263;SDS011;26998;48.714;9.414;2023-05-07T14:15:10;3.90;;;2.00;;
41263;SDS011;26998;48.714;9.414;2023-05-07T14:17:38;4.68;;;2.05;;
41263;SDS011;26998;48.714;9.414;2023-05-07T14:20:05;2.88;;;1.70;;
41263;SDS011;26998;48.714;9.414;2023-05-07T14:22:32;3.63;;;1.88;;
41263;SDS011;26998;48.714;9.414;2023-05-07T14:24:59;4.35;;;2.42;;
41263;SDS011;26998;48.714;9.414;2023-05-07T14:27:40;6.85;;;2.45;;
41263;SDS011;26998;48.714;9.414;2023-05-07T14:30:07;4.90;;;2.63;;
41263;SDS011;26998;48.714;9.414;2023-05-07T14:32:36;4.95;;;2.42;;
41263;SDS011;26998;48.714;9.414;2023-05-07T14:35:03;3.38;;;2.35;;
41263;SDS011;26998;48.714;9.414;2023-05-07T14:37:30;6.28;;;2.97;;
41263;SDS011;26998;48.714;9.414;2023-05-07T14:39:57;5.15;;;2.78;;
41263;SDS011;26998;48.714;9.414;2023-05-07T14:42:23;7.15;;;2.42;;
41263;SDS011;26998;48.714;9.414;2023-05-07T14:44:50;4.75;;;2.55;;
41263;SDS011;26998;48.714;9.414;2023-05-07T14:47:17;6.57;;;2.28;;
41263;SDS011;26998;48.714;9.414;2023-05-07T14:49:46;6.65;;;2.63;;
41263;SDS011;26998;48.714;9.414;2023-05-07T14:52:13;8.13;;;2.78;;
41263;SDS011;26998;48.714;9.414;2023-05-07T14:54:39;5.07;;;2.42;;
41263;SDS011;26998;48.714;9.414;2023-05-07T14:57:06;10.27;;;3.00;;
41263;SDS011;26998;48.714;9.414;2023-05-07T14:59:34;9.13;;;2.63;;
41263;SDS011;26998;48.714;9.414;2023-05-07T15:02:01;5.32;;;2.65;;
41263;SDS011;26998;48.714;9.414;2023-05-07T15:04:32;3.92;;;2.30;;
41263;SDS011;26998;48.714;9.414;2023-05-07T15:06:58;6.45;;;3.28;;
41263;SDS011;26998;48.714;9.414;2023-05-07T15:09:26;9.18;;;3.53;;